Kezdőlap
METAR-TAF:

METAR-TAF

Repülőterek :

Koror, Babeldaob, Palau

földrajzi szélesség: 07-22N, földrajzi hosszúság: 134-32E, magasság: 54 m

Jelenlegi meteorológiai megfigyelések

A jelentés 8 perccel ezelõtt készült, 14:51 UTC
Szélcsend
Hőmérséklet 24°C
Páratartalom 100%
Légköri nyomás 1011 hPa
Látótávolság: 24.1 km
Szórványos felhőzet 1600 lábon
Szakadozott felhőzet 12000 lábon
Szakadozott felhőzet 30000 lábon

METAR: PTRO 151451Z 00000KT 15SM SCT016 BKN120 BKN300 24/24 A2984

Idő: 23:59 (14:59 UTC)

Előrejelzés

A jelentés 3 órával és 39 perccel ezelõtt készült, 11:20 UTC
Az előrejelzés 15-én 12 óra UTC és 16-én 12 óra UTC között érvényes
Különbözõ irányokból fújó szél 6 kt
Látótávolság: 10 km
Szórványos felhőzet 1600 lábon
Szakadozott felhőzet 12000 lábon
Záporok a közelben

TAF: PTRO 151120Z 1512/1612 VRB06KT P6SM VCSH SCT016 BKN120

Meteorológiai megfigyelések és előrejelzések több, mint 4000 repülőtéren (METAR és TAF jelentéseket).

A térképen piros és sárga pontok jelzik az elérhető meteorológiai állomásokat.

Mozgassa az egeret a pont fölött, hogy megjelenjen az állomás neve.

Azután kattintson az időjárási megfigyelések és előrejelzések megtekintéséhez.

A térkép megváltoztatása: kattintson a fekete keresztel jelölt zöld gombra ráközelítéshez, a vonallal jelölt zöld gombra távolításhoz, vagy a zöld nyilakra a szomszédos térképek eléréséhez.


METAR-TAF: